High Island — WDG5547 — position and weather

sailwx.info

Track history (hours):
 
Tides and Currents Weather Stations Pressure Air Temp Water Temp Dewpoint Dewpoint Depression Visibility Wind Speed Wind Dir Waves Ship Positions

High Island

Owner: Higman Barge Lines, Inc, Orange, TX. More information available from US FCC via Universal Licensing System and Coast Guard Vessel Documentation Center.

Last reported at 2018-May-16 22:49 UTC. Time now 2018-May-20 14:12 UTC.
Position N 29°34' W 090°29'.

Length 24 m.

Type: Towing. MMSI: 367547750.

Date/timePositionNaut miles runAvg speedWind from/ knotsBaromVisibWave heightAir tempDewpointWater temp
2018-May-16 22:49N 29°34' W 090°29'2 6.3
2018-May-16 22:30N 29°34' W 090°31'3 6.0
2018-May-16 22:00N 29°34' W 090°34'2 3.7
2018-May-16 21:30N 29°35' W 090°36'2 3.4
2018-May-16 20:59N 29°35' W 090°38'3 5.4
2018-May-16 20:30N 29°36' W 090°41'2 3.1
2018-May-16 20:00N 29°36' W 090°43'2 3.8
2018-May-16 19:30N 29°34' W 090°43'1 2.4
2018-May-16 19:00N 29°34' W 090°45'1 1.3
2018-May-16 18:30N 29°33' W 090°45'0 0.6
2018-May-16 18:00N 29°33' W 090°45'1 1.3
2018-May-16 17:30N 29°32' W 090°46'3 6.7
2018-May-16 17:00N 29°32' W 090°50'112 4.3
2018-May-15 14:55N 29°56' W 092°55'2 4.8
2018-May-15 14:30N 29°56' W 092°57'3 5.0
2018-May-15 14:00N 29°56' W 093°00'2 5.0
2018-May-15 13:30N 29°56' W 093°03'2 4.8
2018-May-15 13:00N 29°56' W 093°06'2 4.9
2018-May-15 12:30N 29°56' W 093°09'2 4.9
2018-May-15 12:00N 29°58' W 093°11'3 5.1
2018-May-15 11:30N 29°59' W 093°13'2 4.6
2018-May-15 11:00N 30°01' W 093°14'1 2.0
2018-May-15 10:30N 30°02' W 093°15'1 2.3
2018-May-15 10:00N 30°03' W 093°16'2 4.1
2018-May-15 09:30N 30°05' W 093°17'1 2.2
2018-May-15 09:00N 30°05' W 093°18'1 1.1
2018-May-15 08:30N 30°06' W 093°18'0 0.2
2018-May-15 08:00N 30°06' W 093°18'0 0.0
2018-May-15 07:30N 30°06' W 093°18'0 0.0
2018-May-15 07:00N 30°06' W 093°18'0 0.0
2018-May-15 06:30N 30°06' W 093°18'0 0.0
2018-May-15 06:00N 30°06' W 093°18'0 0.0
2018-May-15 05:30N 30°06' W 093°18'1 2.4
2018-May-15 05:00N 30°06' W 093°20'3 5.9
2018-May-15 04:30N 30°09' W 093°20'2 3.8
2018-May-15 04:00N 30°10' W 093°19'1 1.9
2018-May-15 03:30N 30°11' W 093°18'0 0.6
2018-May-15 03:00N 30°11' W 093°19'0 0.0
2018-May-15 02:30N 30°11' W 093°19'0 0.0
2018-May-15 02:00N 30°11' W 093°19'0 0.0
2018-May-15 01:30N 30°11' W 093°19'0 0.0
2018-May-15 01:00N 30°11' W 093°19'0 0.0
2018-May-15 00:30N 30°11' W 093°19'0 0.0
2018-May-15 00:00N 30°11' W 093°19'0 0.0
2018-May-14 23:30N 30°11' W 093°19'0 0.0
2018-May-14 23:00N 30°11' W 093°19'0 0.0
2018-May-14 22:30N 30°11' W 093°19'0 0.0
2018-May-14 22:00N 30°11' W 093°19'0 0.0
2018-May-14 21:29N 30°11' W 093°19'0 0.0
2018-May-14 20:59N 30°11' W 093°19'0 0.0
2018-May-14 20:30N 30°11' W 093°19'0 0.0
2018-May-14 20:00N 30°11' W 093°19'0 0.0
2018-May-14 19:30N 30°11' W 093°19'0 0.0
2018-May-14 19:00N 30°11' W 093°19'0 0.0
2018-May-14 18:30N 30°11' W 093°19'0 0.0
2018-May-14 18:00N 30°11' W 093°19'0 0.0
2018-May-14 17:06N 30°11' W 093°19'0 0.0
2018-May-14 17:00N 30°11' W 093°19'0 0.0
2018-May-14 16:30N 30°11' W 093°19'0 0.0
2018-May-14 16:00N 30°11' W 093°19'0 0.0
2018-May-14 15:30N 30°11' W 093°19'0 0.0
2018-May-14 15:00N 30°11' W 093°19'0 0.0
2018-May-14 14:30N 30°11' W 093°19'0 0.0
2018-May-14 14:00N 30°11' W 093°19'0 0.0
2018-May-14 13:30N 30°11' W 093°19'0 0.0
2018-May-14 12:55N 30°11' W 093°19'0 0.0
2018-May-14 12:30N 30°11' W 093°19'0 0.0
2018-May-14 12:00N 30°11' W 093°19'0 0.0
2018-May-14 11:30N 30°11' W 093°19'0 0.0
2018-May-14 11:00N 30°11' W 093°19'0 0.0
2018-May-14 10:30N 30°11' W 093°19'0 0.1
2018-May-14 10:00N 30°11' W 093°19'3 5.5
2018-May-14 09:30N 30°08' W 093°20'3 6.7
2018-May-14 09:01N 30°05' W 093°20'0 0.2
2018-May-14 08:30N 30°05' W 093°20'0 0.0
2018-May-14 07:59N 30°05' W 093°20'0 0.0
2018-May-14 07:30N 30°05' W 093°20'0 0.0
2018-May-14 06:58N 30°05' W 093°20'0 0.0
2018-May-14 06:30N 30°05' W 093°20'0 0.0
2018-May-14 06:00N 30°05' W 093°20'0 0.0
2018-May-14 05:29N 30°05' W 093°20'0 0.0
2018-May-14 05:00N 30°05' W 093°20'0 0.0
2018-May-14 04:29N 30°05' W 093°20'0 0.0
2018-May-14 03:59N 30°05' W 093°20'0 0.0
2018-May-14 03:29N 30°05' W 093°20'0 0.0
2018-May-14 03:00N 30°05' W 093°20'0 0.0
2018-May-14 02:30N 30°05' W 093°20'0 0.0
2018-May-14 02:00N 30°05' W 093°20'0 0.0
2018-May-14 01:30N 30°05' W 093°20'0 0.0
2018-May-14 01:00N 30°05' W 093°20'0 0.0
2018-May-14 00:29N 30°05' W 093°20'0 0.0
2018-May-14 00:00N 30°05' W 093°20'0 0.0
2018-May-13 23:30N 30°05' W 093°20'0 0.0
2018-May-13 23:00N 30°05' W 093°20'0 0.0
2018-May-13 22:30N 30°05' W 093°20'0 0.0
2018-May-13 22:00N 30°05' W 093°20'0 0.0
2018-May-13 21:30N 30°05' W 093°20'0 0.0
2018-May-13 21:00N 30°05' W 093°20'0 0.0
2018-May-13 20:30N 30°05' W 093°20'0 0.0
2018-May-13 19:59N 30°05' W 093°20'0 0.0
2018-May-13 19:30N 30°05' W 093°20'0 0.0
2018-May-13 19:00N 30°05' W 093°20'0 0.0
2018-May-13 18:30N 30°05' W 093°20'0 0.0
2018-May-13 17:56N 30°05' W 093°20'0 0.0
2018-May-13 17:30N 30°05' W 093°20'0 0.0
2018-May-13 17:00N 30°05' W 093°20'0 0.0
2018-May-13 16:30N 30°05' W 093°20'0 0.0
2018-May-13 16:00N 30°05' W 093°20'0 0.0
2018-May-13 15:30N 30°05' W 093°20'0 0.0
2018-May-13 15:00N 30°05' W 093°20'0 0.0
2018-May-13 14:30N 30°05' W 093°20'0 0.0
2018-May-13 14:00N 30°05' W 093°20'0 0.0
2018-May-13 13:30N 30°05' W 093°20'0 0.0
2018-May-13 13:00N 30°05' W 093°20'0 0.0
2018-May-13 12:30N 30°05' W 093°20'0 0.0
2018-May-13 12:00N 30°05' W 093°20'0 0.0
2018-May-13 11:30N 30°05' W 093°20'0 0.0
2018-May-13 11:00N 30°05' W 093°20'0 0.0
2018-May-13 10:30N 30°05' W 093°20'0 0.0
2018-May-13 10:00N 30°05' W 093°20'0 0.0
2018-May-13 09:30N 30°05' W 093°20'0 0.0
2018-May-13 08:59N 30°05' W 093°20'0 0.0
2018-May-13 08:30N 30°05' W 093°20'0 0.0
2018-May-13 08:00N 30°05' W 093°20'0 0.0
2018-May-13 07:29N 30°05' W 093°20'0 0.0
2018-May-13 06:58N 30°05' W 093°20'0 0.0
2018-May-13 06:30N 30°05' W 093°20'0 0.0
2018-May-13 06:00N 30°05' W 093°20'0 0.0
2018-May-13 05:30N 30°05' W 093°20'0 0.0
2018-May-13 04:58N 30°05' W 093°20'0 0.0
2018-May-13 04:30N 30°05' W 093°20'0 0.0
2018-May-13 04:00N 30°05' W 093°20'0 0.0
2018-May-13 03:30N 30°05' W 093°20'0 0.0
2018-May-13 03:00N 30°05' W 093°20'0 0.0
2018-May-13 02:30N 30°05' W 093°20'0 0.0
2018-May-13 02:00N 30°05' W 093°20'0 0.0
2018-May-13 01:30N 30°05' W 093°20'0 0.0
2018-May-13 01:00N 30°05' W 093°20'0 0.0
2018-May-13 00:30N 30°05' W 093°20'0 0.0
2018-May-13 00:00N 30°05' W 093°20'0 0.0
2018-May-12 23:30N 30°05' W 093°20'0 0.0
2018-May-12 23:00N 30°05' W 093°20'0 0.0
2018-May-12 22:27N 30°05' W 093°20'0 0.0
2018-May-12 22:00N 30°05' W 093°20'0 0.0
2018-May-12 21:30N 30°05' W 093°20'0 0.0
2018-May-12 21:00N 30°05' W 093°20'0 0.0
2018-May-12 20:30N 30°05' W 093°20'0 0.0
2018-May-12 20:00N 30°05' W 093°20'0 0.0
2018-May-12 19:30N 30°05' W 093°20'0 0.0
2018-May-12 19:00N 30°05' W 093°20'0 0.0
2018-May-12 18:30N 30°05' W 093°20'0 0.0
2018-May-12 18:00N 30°05' W 093°20'0 0.2
2018-May-12 17:30N 30°05' W 093°20'0 0.2
2018-May-12 17:00N 30°05' W 093°20'0 0.0
2018-May-12 16:30N 30°05' W 093°20'0 0.0
2018-May-12 16:00N 30°05' W 093°20'0 0.0
2018-May-12 15:30N 30°05' W 093°20'0 0.0
2018-May-12 15:00N 30°05' W 093°20'0 0.0
2018-May-12 14:30N 30°05' W 093°20'0 0.0
2018-May-12 14:00N 30°05' W 093°20'0 0.0
2018-May-12 13:30N 30°05' W 093°20'0 0.0
2018-May-12 13:00N 30°05' W 093°20'0 0.0
2018-May-12 12:30N 30°05' W 093°20'0 0.0
2018-May-12 12:00N 30°05' W 093°20'0 0.0
2018-May-12 11:30N 30°05' W 093°20'0 0.0
2018-May-12 10:43N 30°05' W 093°20'0 0.0
2018-May-12 10:25N 30°05' W 093°20'0 0.2
2018-May-12 10:00N 30°05' W 093°20'0 0.2
2018-May-12 09:30N 30°05' W 093°20'0 0.0
2018-May-12 09:00N 30°05' W 093°20'0 0.0
2018-May-12 08:30N 30°05' W 093°20'0 0.0
2018-May-12 08:00N 30°05' W 093°20'0 0.0
2018-May-12 07:30N 30°05' W 093°20'0 0.0
2018-May-12 07:00N 30°05' W 093°20'0 0.0
2018-May-12 06:29N 30°05' W 093°20'0 0.0
2018-May-12 06:00N 30°05' W 093°20'0 0.0
2018-May-12 05:30N 30°05' W 093°20'0 0.0
2018-May-12 05:00N 30°05' W 093°20'0 0.0
2018-May-12 04:30N 30°05' W 093°20'0 0.0
2018-May-12 03:59N 30°05' W 093°20'1 2.3
2018-May-12 03:30N 30°06' W 093°19'0 0.1
2018-May-12 03:00N 30°06' W 093°19'1 2.8
2018-May-12 02:30N 30°05' W 093°18'1 2.5
2018-May-12 02:00N 30°05' W 093°17'1 1.1
2018-May-12 01:30N 30°04' W 093°16'2 4.9
2018-May-12 01:00N 30°02' W 093°15'3 5.9
2018-May-12 00:30N 29°59' W 093°13'3 6.5
2018-May-12 00:00N 29°57' W 093°10'3 5.9
2018-May-11 23:25N 29°56' W 093°07'  
2018-May-09 15:20N 32°01' W 091°04'4 8.9
2018-May-09 14:50N 32°05' W 091°05'2 7.6
2018-May-09 14:30N 32°08' W 091°06'4 8.8
2018-May-09 14:00N 32°08' W 091°01'5 9.9
2018-May-09 13:30N 32°12' W 090°59'510.3
2018-May-09 13:00N 32°17' W 090°57'4 7.5
2018-May-09 12:30N 32°21' W 090°56'2 3.6
2018-May-09 12:00N 32°21' W 090°58'3 5.8
2018-May-09 11:30N 32°23' W 090°60'4 7.2
2018-May-09 11:00N 32°26' W 091°02'510.0
2018-May-09 10:30N 32°29' W 091°07'510.0
2018-May-09 10:00N 32°34' W 091°07'510.0
2018-May-09 09:29N 32°39' W 091°09'610.9
2018-May-09 08:57N 32°43' W 091°03'4 9.5
2018-May-09 08:29N 32°44' W 091°08'610.1
2018-May-09 07:53N 32°50' W 091°08'  
Track history (hours):
 
Tides and Currents Weather Stations Pressure Air Temp Water Temp Dewpoint Dewpoint Depression Visibility Wind Speed Wind Dir Waves Ship Positions

High Island

Owner: Higman Barge Lines, Inc, Orange, TX. More information available from US FCC via Universal Licensing System and Coast Guard Vessel Documentation Center.

Last reported at 2018-May-16 22:49 UTC. Time now 2018-May-20 14:12 UTC.
Position N 29°34' W 090°29'.

Length 24 m.

Type: Towing. MMSI: 367547750.

Date/timePositionNaut miles runAvg speedWind from/ knotsBaromVisibWave heightAir tempDewpointWater temp
2018-May-16 22:49N 29°34' W 090°29'2 6.3
2018-May-16 22:30N 29°34' W 090°31'3 6.0
2018-May-16 22:00N 29°34' W 090°34'2 3.7
2018-May-16 21:30N 29°35' W 090°36'2 3.4
2018-May-16 20:59N 29°35' W 090°38'3 5.4
2018-May-16 20:30N 29°36' W 090°41'2 3.1
2018-May-16 20:00N 29°36' W 090°43'2 3.8
2018-May-16 19:30N 29°34' W 090°43'1 2.4
2018-May-16 19:00N 29°34' W 090°45'1 1.3
2018-May-16 18:30N 29°33' W 090°45'0 0.6
2018-May-16 18:00N 29°33' W 090°45'1 1.3
2018-May-16 17:30N 29°32' W 090°46'3 6.7
2018-May-16 17:00N 29°32' W 090°50'112 4.3
2018-May-15 14:55N 29°56' W 092°55'2 4.8
2018-May-15 14:30N 29°56' W 092°57'3 5.0
2018-May-15 14:00N 29°56' W 093°00'2 5.0
2018-May-15 13:30N 29°56' W 093°03'2 4.8
2018-May-15 13:00N 29°56' W 093°06'2 4.9
2018-May-15 12:30N 29°56' W 093°09'2 4.9
2018-May-15 12:00N 29°58' W 093°11'3 5.1
2018-May-15 11:30N 29°59' W 093°13'2 4.6
2018-May-15 11:00N 30°01' W 093°14'1 2.0
2018-May-15 10:30N 30°02' W 093°15'1 2.3
2018-May-15 10:00N 30°03' W 093°16'2 4.1
2018-May-15 09:30N 30°05' W 093°17'1 2.2
2018-May-15 09:00N 30°05' W 093°18'1 1.1
2018-May-15 08:30N 30°06' W 093°18'0 0.2
2018-May-15 08:00N 30°06' W 093°18'0 0.0
2018-May-15 07:30N 30°06' W 093°18'0 0.0
2018-May-15 07:00N 30°06' W 093°18'0 0.0
2018-May-15 06:30N 30°06' W 093°18'0 0.0
2018-May-15 06:00N 30°06' W 093°18'0 0.0
2018-May-15 05:30N 30°06' W 093°18'1 2.4
2018-May-15 05:00N 30°06' W 093°20'3 5.9
2018-May-15 04:30N 30°09' W 093°20'2 3.8
2018-May-15 04:00N 30°10' W 093°19'1 1.9
2018-May-15 03:30N 30°11' W 093°18'0 0.6
2018-May-15 03:00N 30°11' W 093°19'0 0.0
2018-May-15 02:30N 30°11' W 093°19'0 0.0
2018-May-15 02:00N 30°11' W 093°19'0 0.0
2018-May-15 01:30N 30°11' W 093°19'0 0.0
2018-May-15 01:00N 30°11' W 093°19'0 0.0
2018-May-15 00:30N 30°11' W 093°19'0 0.0
2018-May-15 00:00N 30°11' W 093°19'0 0.0
2018-May-14 23:30N 30°11' W 093°19'0 0.0
2018-May-14 23:00N 30°11' W 093°19'0 0.0
2018-May-14 22:30N 30°11' W 093°19'0 0.0
2018-May-14 22:00N 30°11' W 093°19'0 0.0
2018-May-14 21:29N 30°11' W 093°19'0 0.0
2018-May-14 20:59N 30°11' W 093°19'0 0.0
2018-May-14 20:30N 30°11' W 093°19'0 0.0
2018-May-14 20:00N 30°11' W 093°19'0 0.0
2018-May-14 19:30N 30°11' W 093°19'0 0.0
2018-May-14 19:00N 30°11' W 093°19'0 0.0
2018-May-14 18:30N 30°11' W 093°19'0 0.0
2018-May-14 18:00N 30°11' W 093°19'0 0.0
2018-May-14 17:06N 30°11' W 093°19'0 0.0
2018-May-14 17:00N 30°11' W 093°19'0 0.0
2018-May-14 16:30N 30°11' W 093°19'0 0.0
2018-May-14 16:00N 30°11' W 093°19'0 0.0
2018-May-14 15:30N 30°11' W 093°19'0 0.0
2018-May-14 15:00N 30°11' W 093°19'0 0.0
2018-May-14 14:30N 30°11' W 093°19'0 0.0
2018-May-14 14:00N 30°11' W 093°19'0 0.0
2018-May-14 13:30N 30°11' W 093°19'0 0.0
2018-May-14 12:55N 30°11' W 093°19'0 0.0
2018-May-14 12:30N 30°11' W 093°19'0 0.0
2018-May-14 12:00N 30°11' W 093°19'0 0.0
2018-May-14 11:30N 30°11' W 093°19'0 0.0
2018-May-14 11:00N 30°11' W 093°19'0 0.0
2018-May-14 10:30N 30°11' W 093°19'0 0.1
2018-May-14 10:00N 30°11' W 093°19'3 5.5
2018-May-14 09:30N 30°08' W 093°20'3 6.7
2018-May-14 09:01N 30°05' W 093°20'0 0.2
2018-May-14 08:30N 30°05' W 093°20'0 0.0
2018-May-14 07:59N 30°05' W 093°20'0 0.0
2018-May-14 07:30N 30°05' W 093°20'0 0.0
2018-May-14 06:58N 30°05' W 093°20'0 0.0
2018-May-14 06:30N 30°05' W 093°20'0 0.0
2018-May-14 06:00N 30°05' W 093°20'0 0.0
2018-May-14 05:29N 30°05' W 093°20'0 0.0
2018-May-14 05:00N 30°05' W 093°20'0 0.0
2018-May-14 04:29N 30°05' W 093°20'0 0.0
2018-May-14 03:59N 30°05' W 093°20'0 0.0
2018-May-14 03:29N 30°05' W 093°20'0 0.0
2018-May-14 03:00N 30°05' W 093°20'0 0.0
2018-May-14 02:30N 30°05' W 093°20'0 0.0
2018-May-14 02:00N 30°05' W 093°20'0 0.0
2018-May-14 01:30N 30°05' W 093°20'0 0.0
2018-May-14 01:00N 30°05' W 093°20'0 0.0
2018-May-14 00:29N 30°05' W 093°20'0 0.0
2018-May-14 00:00N 30°05' W 093°20'0 0.0
2018-May-13 23:30N 30°05' W 093°20'0 0.0
2018-May-13 23:00N 30°05' W 093°20'0 0.0
2018-May-13 22:30N 30°05' W 093°20'0 0.0
2018-May-13 22:00N 30°05' W 093°20'0 0.0
2018-May-13 21:30N 30°05' W 093°20'0 0.0
2018-May-13 21:00N 30°05' W 093°20'0 0.0
2018-May-13 20:30N 30°05' W 093°20'0 0.0
2018-May-13 19:59N 30°05' W 093°20'0 0.0
2018-May-13 19:30N 30°05' W 093°20'0 0.0
2018-May-13 19:00N 30°05' W 093°20'0 0.0
2018-May-13 18:30N 30°05' W 093°20'0 0.0
2018-May-13 17:56N 30°05' W 093°20'0 0.0
2018-May-13 17:30N 30°05' W 093°20'0 0.0
2018-May-13 17:00N 30°05' W 093°20'0 0.0
2018-May-13 16:30N 30°05' W 093°20'0 0.0
2018-May-13 16:00N 30°05' W 093°20'0 0.0
2018-May-13 15:30N 30°05' W 093°20'0 0.0
2018-May-13 15:00N 30°05' W 093°20'0 0.0
2018-May-13 14:30N 30°05' W 093°20'0 0.0
2018-May-13 14:00N 30°05' W 093°20'0 0.0
2018-May-13 13:30N 30°05' W 093°20'0 0.0
2018-May-13 13:00N 30°05' W 093°20'0 0.0
2018-May-13 12:30N 30°05' W 093°20'0 0.0
2018-May-13 12:00N 30°05' W 093°20'0 0.0
2018-May-13 11:30N 30°05' W 093°20'0 0.0
2018-May-13 11:00N 30°05' W 093°20'0 0.0
2018-May-13 10:30N 30°05' W 093°20'0 0.0
2018-May-13 10:00N 30°05' W 093°20'0 0.0
2018-May-13 09:30N 30°05' W 093°20'0 0.0
2018-May-13 08:59N 30°05' W 093°20'0 0.0
2018-May-13 08:30N 30°05' W 093°20'0 0.0
2018-May-13 08:00N 30°05' W 093°20'0 0.0
2018-May-13 07:29N 30°05' W 093°20'0 0.0
2018-May-13 06:58N 30°05' W 093°20'0 0.0
2018-May-13 06:30N 30°05' W 093°20'0 0.0
2018-May-13 06:00N 30°05' W 093°20'0 0.0
2018-May-13 05:30N 30°05' W 093°20'0 0.0
2018-May-13 04:58N 30°05' W 093°20'0 0.0
2018-May-13 04:30N 30°05' W 093°20'0 0.0
2018-May-13 04:00N 30°05' W 093°20'0 0.0
2018-May-13 03:30N 30°05' W 093°20'0 0.0
2018-May-13 03:00N 30°05' W 093°20'0 0.0
2018-May-13 02:30N 30°05' W 093°20'0 0.0
2018-May-13 02:00N 30°05' W 093°20'0 0.0
2018-May-13 01:30N 30°05' W 093°20'0 0.0
2018-May-13 01:00N 30°05' W 093°20'0 0.0
2018-May-13 00:30N 30°05' W 093°20'0 0.0
2018-May-13 00:00N 30°05' W 093°20'0 0.0
2018-May-12 23:30N 30°05' W 093°20'0 0.0
2018-May-12 23:00N 30°05' W 093°20'0 0.0
2018-May-12 22:27N 30°05' W 093°20'0 0.0
2018-May-12 22:00N 30°05' W 093°20'0 0.0
2018-May-12 21:30N 30°05' W 093°20'0 0.0
2018-May-12 21:00N 30°05' W 093°20'0 0.0
2018-May-12 20:30N 30°05' W 093°20'0 0.0
2018-May-12 20:00N 30°05' W 093°20'0 0.0
2018-May-12 19:30N 30°05' W 093°20'0 0.0
2018-May-12 19:00N 30°05' W 093°20'0 0.0
2018-May-12 18:30N 30°05' W 093°20'0 0.0
2018-May-12 18:00N 30°05' W 093°20'0 0.2
2018-May-12 17:30N 30°05' W 093°20'0 0.2
2018-May-12 17:00N 30°05' W 093°20'0 0.0
2018-May-12 16:30N 30°05' W 093°20'0 0.0
2018-May-12 16:00N 30°05' W 093°20'0 0.0
2018-May-12 15:30N 30°05' W 093°20'0 0.0
2018-May-12 15:00N 30°05' W 093°20'0 0.0
2018-May-12 14:30N 30°05' W 093°20'0 0.0
2018-May-12 14:00N 30°05' W 093°20'0 0.0
2018-May-12 13:30N 30°05' W 093°20'0 0.0
2018-May-12 13:00N 30°05' W 093°20'0 0.0
2018-May-12 12:30N 30°05' W 093°20'0 0.0
2018-May-12 12:00N 30°05' W 093°20'0 0.0
2018-May-12 11:30N 30°05' W 093°20'0 0.0
2018-May-12 10:43N 30°05' W 093°20'0 0.0
2018-May-12 10:25N 30°05' W 093°20'0 0.2
2018-May-12 10:00N 30°05' W 093°20'0 0.2
2018-May-12 09:30N 30°05' W 093°20'0 0.0
2018-May-12 09:00N 30°05' W 093°20'0 0.0
2018-May-12 08:30N 30°05' W 093°20'0 0.0
2018-May-12 08:00N 30°05' W 093°20'0 0.0
2018-May-12 07:30N 30°05' W 093°20'0 0.0
2018-May-12 07:00N 30°05' W 093°20'0 0.0
2018-May-12 06:29N 30°05' W 093°20'0 0.0
2018-May-12 06:00N 30°05' W 093°20'0 0.0
2018-May-12 05:30N 30°05' W 093°20'0 0.0
2018-May-12 05:00N 30°05' W 093°20'0 0.0
2018-May-12 04:30N 30°05' W 093°20'0 0.0
2018-May-12 03:59N 30°05' W 093°20'1 2.3
2018-May-12 03:30N 30°06' W 093°19'0 0.1
2018-May-12 03:00N 30°06' W 093°19'1 2.8
2018-May-12 02:30N 30°05' W 093°18'1 2.5
2018-May-12 02:00N 30°05' W 093°17'1 1.1
2018-May-12 01:30N 30°04' W 093°16'2 4.9
2018-May-12 01:00N 30°02' W 093°15'3 5.9
2018-May-12 00:30N 29°59' W 093°13'3 6.5
2018-May-12 00:00N 29°57' W 093°10'3 5.9
2018-May-11 23:25N 29°56' W 093°07'  
2018-May-09 15:20N 32°01' W 091°04'4 8.9
2018-May-09 14:50N 32°05' W 091°05'2 7.6
2018-May-09 14:30N 32°08' W 091°06'4 8.8
2018-May-09 14:00N 32°08' W 091°01'5 9.9
2018-May-09 13:30N 32°12' W 090°59'510.3
2018-May-09 13:00N 32°17' W 090°57'4 7.5
2018-May-09 12:30N 32°21' W 090°56'2 3.6
2018-May-09 12:00N 32°21' W 090°58'3 5.8
2018-May-09 11:30N 32°23' W 090°60'4 7.2
2018-May-09 11:00N 32°26' W 091°02'510.0
2018-May-09 10:30N 32°29' W 091°07'510.0
2018-May-09 10:00N 32°34' W 091°07'510.0
2018-May-09 09:29N 32°39' W 091°09'610.9
2018-May-09 08:57N 32°43' W 091°03'4 9.5
2018-May-09 08:29N 32°44' W 091°08'610.1
2018-May-09 07:53N 32°50' W 091°08'  

Dump ship's entire track history